Suffolk, VA

10:13 AM EDT on May 26, 2017 (GMT -0400)
Suffolk Municipal

Weather History for KSFQ - February, 2013

Change the Weather History Date:

Wednesday, February 27, 2013

  Actual Average Record
Temperature  
Mean Temperature 50 °F -  
Max Temperature 60 °F 53 °F 78 °F (1977)
Min Temperature 39 °F 33 °F 15 °F (1963)
Degree Days  
Heating Degree Days 16    
Moisture  
Dew Point 46 °F    
Average Humidity 83    
Maximum Humidity 100    
Minimum Humidity 51    
Precipitation  
Precipitation 0.01 in - - ()
Sea Level Pressure  
Sea Level Pressure 29.68 in    
Wind  
Wind Speed 8 mph (WSW)    
Max Wind Speed 15 mph    
Max Gust Speed 22 mph    
Visibility 10 miles    
Events      
Averages and records for this station are not official NWS values.
T = Trace of Precipitation, MM = Missing Value Source: NWS Daily Summary

Daily Weather History Graph

Daily Weather History Graph

Search for Another Location

Airport or City:

Trip Planner

Search our weather history database for the weather conditions in past years. The results will help you decide how hot, cold, wet, or windy it might be!

Date:

Astronomy

Feb. 27, 2013 Rise Set
Actual Time 6:39 AM EST 5:59 PM EST
Civil Twilight 6:13 AM EST 6:25 PM EST
Nautical Twilight 5:43 AM EST 6:55 PM EST
Astronomical Twilight 5:13 AM EST 7:25 PM EST
Moon 8:12 PM EST (2/27) 7:17 AM EST (2/27)
Length of Visible Light 12h 11m
Length of Day
11h 19m
Waning Gibbous, 96% of the Moon is Illuminated
Feb 27
Waning Gibbous
Mar 4
Last Quarter
Mar 11
New
Mar 19
First Quarter
Mar 27
Full

Hourly Weather History & Observations

Time (EST) Temp. Windchill Dew Point Humidity Pressure Visibility Wind Dir Wind Speed Gust Speed Precip Events Conditions
12:15 AM 60.8 °F - 60.8 °F 100% 29.57 in 10.0 mi West 8.1 mph - N/A   Mostly Cloudy
12:35 AM 60.8 °F - 60.8 °F 100% 29.59 in 10.0 mi WSW 11.5 mph 17.3 mph N/A   Overcast
12:55 AM 59.0 °F - 59.0 °F 100% 29.59 in 10.0 mi WSW 5.8 mph - N/A   Overcast
1:15 AM 59.0 °F - 57.2 °F 94% 29.59 in 10.0 mi WSW 6.9 mph - N/A   Mostly Cloudy
1:35 AM 57.2 °F - 55.4 °F 94% 29.59 in 10.0 mi WSW 4.6 mph - N/A   Scattered Clouds
1:55 AM 55.4 °F - 53.6 °F 94% 29.59 in 10.0 mi SW 4.6 mph - N/A   Clear
2:15 AM 55.4 °F - 53.6 °F 94% 29.59 in 10.0 mi SW 4.6 mph - N/A   Clear
2:35 AM 55.4 °F - 53.6 °F 94% 29.58 in 10.0 mi SW 3.5 mph - N/A   Clear
2:55 AM 53.6 °F - 53.6 °F 100% 29.58 in 10.0 mi SW 3.5 mph - N/A   Clear
3:15 AM 53.6 °F - 51.8 °F 94% 29.57 in 10.0 mi SSW 4.6 mph - N/A   Clear
3:35 AM 53.6 °F - 51.8 °F 94% 29.58 in 10.0 mi SSW 5.8 mph - N/A   Clear
3:55 AM 53.6 °F - 51.8 °F 94% 29.58 in 10.0 mi SSW 6.9 mph - N/A   Clear
4:15 AM 51.8 °F - 50.0 °F 94% 29.58 in 10.0 mi SW 6.9 mph - N/A   Clear
4:35 AM 51.8 °F - 50.0 °F 94% 29.59 in 10.0 mi SW 9.2 mph - N/A   Clear
4:55 AM 51.8 °F - 48.2 °F 88% 29.60 in 10.0 mi SW 9.2 mph - N/A   Clear
5:15 AM 51.8 °F - 48.2 °F 88% 29.60 in 10.0 mi SW 8.1 mph - N/A   Clear
5:35 AM 50.0 °F - 48.2 °F 94% 29.60 in 10.0 mi SW 9.2 mph - N/A   Clear
5:55 AM 50.0 °F - 46.4 °F 87% 29.60 in 10.0 mi SW 9.2 mph - N/A   Clear
6:15 AM 48.2 °F - 46.4 °F 93% 29.61 in 10.0 mi SW 5.8 mph - N/A   Clear
6:35 AM 48.2 °F - 46.4 °F 93% 29.62 in 10.0 mi WSW 6.9 mph - N/A   Mostly Cloudy
6:55 AM 48.2 °F - 46.4 °F 93% 29.64 in 10.0 mi WSW 15.0 mph 19.6 mph N/A   Overcast
7:15 AM 48.2 °F - 46.4 °F 93% 29.65 in 10.0 mi West 13.8 mph 20.7 mph 0.01 in   Overcast
7:35 AM 48.2 °F - 44.6 °F 87% 29.66 in 10.0 mi West 11.5 mph 21.9 mph 0.01 in   Overcast
7:55 AM 46.4 °F 40.7 °F 44.6 °F 93% 29.68 in 10.0 mi WSW 12.7 mph 18.4 mph 0.01 in   Overcast
8:15 AM 46.4 °F 40.1 °F 44.6 °F 93% 29.69 in 10.0 mi West 15.0 mph 20.7 mph N/A   Overcast
8:35 AM 46.4 °F 40.7 °F 44.6 °F 93% 29.70 in 10.0 mi WSW 12.7 mph 18.4 mph N/A   Overcast
8:55 AM 46.4 °F 42.4 °F 44.6 °F 93% 29.71 in 10.0 mi WSW 8.1 mph - N/A   Overcast
9:15 AM 46.4 °F 41.9 °F 44.6 °F 93% 29.72 in 10.0 mi WSW 9.2 mph - N/A   Overcast
9:35 AM 46.4 °F 41.1 °F 44.6 °F 93% 29.72 in 10.0 mi West 11.5 mph 17.3 mph N/A   Overcast
9:55 AM 48.2 °F - 44.6 °F 87% 29.72 in 10.0 mi West 11.5 mph 17.3 mph N/A   Overcast
10:15 AM 48.2 °F - 44.6 °F 87% 29.73 in 10.0 mi West 13.8 mph 19.6 mph N/A   Overcast
10:35 AM 48.2 °F - 44.6 °F 87% 29.74 in 10.0 mi WSW 11.5 mph - N/A   Overcast
10:55 AM 50.0 °F - 44.6 °F 82% 29.74 in 10.0 mi WSW 9.2 mph - N/A   Mostly Cloudy
11:15 AM 51.8 °F - 44.6 °F 76% 29.73 in 10.0 mi WSW 8.1 mph - N/A   Scattered Clouds
11:35 AM 51.8 °F - 46.4 °F 82% 29.73 in 10.0 mi WSW 9.2 mph 16.1 mph N/A   Scattered Clouds
11:55 AM 53.6 °F - 46.4 °F 77% 29.73 in 10.0 mi WSW 10.4 mph - N/A   Scattered Clouds
12:15 PM 55.4 °F - 46.4 °F 72% 29.72 in 10.0 mi WSW 13.8 mph 18.4 mph N/A   Scattered Clouds
12:35 PM 55.4 °F - 46.4 °F 72% 29.72 in 10.0 mi West 10.4 mph - N/A   Mostly Cloudy
12:55 PM 57.2 °F - 46.4 °F 67% 29.71 in 10.0 mi West 6.9 mph - N/A   Mostly Cloudy
1:15 PM 57.2 °F - 46.4 °F 67% 29.71 in 10.0 mi WSW 12.7 mph - N/A   Scattered Clouds
1:35 PM 57.2 °F - 44.6 °F 63% 29.71 in 10.0 mi WSW 12.7 mph - N/A   Scattered Clouds
1:55 PM 57.2 °F - 42.8 °F 59% 29.70 in 10.0 mi West 11.5 mph 19.6 mph N/A   Clear
2:15 PM 57.2 °F - 42.8 °F 59% 29.70 in 10.0 mi West 10.4 mph - N/A   Clear
2:35 PM 59.0 °F - 42.8 °F 55% 29.70 in 10.0 mi WSW 12.7 mph - N/A   Scattered Clouds
2:55 PM 59.0 °F - 42.8 °F 55% 29.69 in 10.0 mi West 15.0 mph 21.9 mph N/A   Clear
3:15 PM 59.0 °F - 42.8 °F 55% 29.69 in 10.0 mi West 10.4 mph 20.7 mph N/A   Clear
3:35 PM 59.0 °F - 41.0 °F 51% 29.69 in 10.0 mi WSW 11.5 mph 18.4 mph N/A   Clear
3:55 PM 59.0 °F - 41.0 °F 51% 29.70 in 10.0 mi WSW 12.7 mph 18.4 mph N/A   Clear
4:15 PM 59.0 °F - 42.8 °F 55% 29.69 in 10.0 mi WSW 10.4 mph - N/A   Clear
4:35 PM 59.0 °F - 42.8 °F 55% 29.69 in 10.0 mi WSW 11.5 mph - N/A   Clear
4:55 PM 57.2 °F - 42.8 °F 59% 29.70 in 10.0 mi WSW 10.4 mph - N/A   Clear
5:15 PM 57.2 °F - 42.8 °F 59% 29.70 in 10.0 mi WSW 9.2 mph - N/A   Clear
5:35 PM 57.2 °F - 41.0 °F 55% 29.70 in 10.0 mi SW 5.8 mph - N/A   Clear
5:55 PM 55.4 °F - 42.8 °F 63% 29.71 in 10.0 mi SSW 4.6 mph - N/A   Clear
6:15 PM 53.6 °F - 42.8 °F 67% 29.72 in 10.0 mi SSW 4.6 mph - N/A   Clear
6:35 PM 51.8 °F - 42.8 °F 71% 29.72 in 10.0 mi SSW 3.5 mph - N/A   Clear
6:55 PM 50.0 °F - 42.8 °F 76% 29.72 in 10.0 mi Calm Calm - N/A   Clear
7:15 PM 46.4 °F - 42.8 °F 87% 29.72 in 10.0 mi Calm Calm - N/A   Clear
7:35 PM 46.4 °F - 42.8 °F 87% 29.72 in 10.0 mi Calm Calm - N/A   Clear
7:55 PM 46.4 °F - 42.8 °F 87% 29.72 in 10.0 mi Calm Calm - N/A   Clear
8:15 PM 44.6 °F - 42.8 °F 93% 29.72 in 10.0 mi Calm Calm - N/A   Clear
8:35 PM 44.6 °F - 42.8 °F 93% 29.73 in 10.0 mi Calm Calm - N/A   Clear
8:55 PM 42.8 °F - 41.0 °F 93% 29.73 in 10.0 mi Calm Calm - N/A   Clear
9:15 PM 42.8 °F - 41.0 °F 93% 29.72 in 10.0 mi Calm Calm - N/A   Clear
9:35 PM 42.8 °F - 41.0 °F 93% 29.72 in 10.0 mi Calm Calm - N/A   Clear
9:55 PM 41.0 °F - 39.2 °F 93% 29.72 in 10.0 mi Calm Calm - N/A   Clear
10:15 PM 41.0 °F - 39.2 °F 93% 29.72 in 10.0 mi Calm Calm - N/A   Clear
10:35 PM 39.2 °F - 39.2 °F 100% 29.72 in 10.0 mi Calm Calm - N/A   Clear
10:55 PM 39.2 °F - 39.2 °F 100% 29.72 in 10.0 mi Calm Calm - N/A   Clear
11:15 PM 41.0 °F - 39.2 °F 93% 29.71 in 10.0 mi Calm Calm - N/A   Scattered Clouds
11:35 PM 39.2 °F 35.9 °F 39.2 °F 100% 29.70 in 10.0 mi South 4.6 mph - N/A   Clear
11:55 PM 39.2 °F - 37.4 °F 93% 29.70 in 10.0 mi Calm Calm - N/A   Clear